sensor_id;sensor_type;location;lat;lon;timestamp;pressure;altitude;pressure_sealevel;temperature;humidity
6680;BME280;3376;42.664;23.346;2023-04-08T00:02:20;94606.72;;;6.77;82.32
6680;BME280;3376;42.664;23.346;2023-04-08T00:04:47;94607.00;;;6.74;83.33
6680;BME280;3376;42.664;23.346;2023-04-08T00:07:13;94614.44;;;6.77;82.67
6680;BME280;3376;42.664;23.346;2023-04-08T00:09:41;94603.28;;;6.68;84.02
6680;BME280;3376;42.664;23.346;2023-04-08T00:12:08;94609.22;;;6.69;83.86
6680;BME280;3376;42.664;23.346;2023-04-08T00:14:35;94614.78;;;6.56;84.32
6680;BME280;3376;42.664;23.346;2023-04-08T00:17:02;94610.72;;;6.54;83.48
6680;BME280;3376;42.664;23.346;2023-04-08T00:19:29;94599.34;;;6.39;84.87
6680;BME280;3376;42.664;23.346;2023-04-08T00:21:56;94605.81;;;6.43;85.51
6680;BME280;3376;42.664;23.346;2023-04-08T00:24:22;94612.22;;;6.39;85.25
6680;BME280;3376;42.664;23.346;2023-04-08T00:26:51;94572.91;;;6.11;86.10
6680;BME280;3376;42.664;23.346;2023-04-08T00:29:17;94609.78;;;6.37;85.89
6680;BME280;3376;42.664;23.346;2023-04-08T00:31:44;94604.84;;;6.44;86.17
6680;BME280;3376;42.664;23.346;2023-04-08T00:34:11;94606.09;;;6.40;86.35
6680;BME280;3376;42.664;23.346;2023-04-08T00:36:38;94612.09;;;6.48;86.07
6680;BME280;3376;42.664;23.346;2023-04-08T00:39:05;94612.97;;;6.57;83.90
6680;BME280;3376;42.664;23.346;2023-04-08T00:41:32;94583.03;;;6.48;83.70
6680;BME280;3376;42.664;23.346;2023-04-08T00:44:01;94608.50;;;6.59;84.26
6680;BME280;3376;42.664;23.346;2023-04-08T00:46:29;94612.19;;;6.56;85.12
6680;BME280;3376;42.664;23.346;2023-04-08T00:48:56;94590.59;;;6.49;83.52
6680;BME280;3376;42.664;23.346;2023-04-08T00:51:23;94617.59;;;6.71;83.58
6680;BME280;3376;42.664;23.346;2023-04-08T00:53:50;94614.22;;;6.70;83.21
6680;BME280;3376;42.664;23.346;2023-04-08T00:56:17;94617.75;;;6.69;82.43
6680;BME280;3376;42.664;23.346;2023-04-08T00:58:44;94615.63;;;6.65;82.33
6680;BME280;3376;42.664;23.346;2023-04-08T01:01:17;94615.88;;;6.54;81.61
6680;BME280;3376;42.664;23.346;2023-04-08T01:03:56;94620.34;;;6.52;82.29
6680;BME280;3376;42.664;23.346;2023-04-08T01:06:29;94630.56;;;6.44;82.88
6680;BME280;3376;42.664;23.346;2023-04-08T01:08:59;94621.16;;;6.35;82.44
6680;BME280;3376;42.664;23.346;2023-04-08T01:11:26;94621.97;;;6.35;83.32
6680;BME280;3376;42.664;23.346;2023-04-08T01:13:55;94632.19;;;6.10;82.65
6680;BME280;3376;42.664;23.346;2023-04-08T01:16:25;94621.22;;;5.90;83.71
6680;BME280;3376;42.664;23.346;2023-04-08T01:18:52;94592.78;;;5.64;85.57
6680;BME280;3376;42.664;23.346;2023-04-08T01:21:21;94616.06;;;5.90;86.30
6680;BME280;3376;42.664;23.346;2023-04-08T01:23:55;94614.09;;;5.84;85.97
6680;BME280;3376;42.664;23.346;2023-04-08T01:26:26;94617.72;;;5.81;85.35
6680;BME280;3376;42.664;23.346;2023-04-08T01:28:56;94613.13;;;5.85;85.18
6680;BME280;3376;42.664;23.346;2023-04-08T01:31:24;94550.63;;;5.40;85.27
6680;BME280;3376;42.664;23.346;2023-04-08T01:33:52;94616.66;;;5.74;85.70
6680;BME280;3376;42.664;23.346;2023-04-08T01:36:20;94622.91;;;5.72;86.39
6680;BME280;3376;42.664;23.346;2023-04-08T01:38:49;94619.97;;;5.67;86.32
6680;BME280;3376;42.664;23.346;2023-04-08T01:41:17;94617.81;;;5.62;86.97
6680;BME280;3376;42.664;23.346;2023-04-08T01:43:47;94626.78;;;5.58;84.43
6680;BME280;3376;42.664;23.346;2023-04-08T01:46:15;94597.09;;;5.46;85.57
6680;BME280;3376;42.664;23.346;2023-04-08T01:48:43;94617.41;;;5.67;86.00
6680;BME280;3376;42.664;23.346;2023-04-08T01:51:11;94581.16;;;5.43;83.91
6680;BME280;3376;42.664;23.346;2023-04-08T01:53:38;94507.69;;;5.05;84.11
6680;BME280;3376;42.664;23.346;2023-04-08T01:56:08;94629.66;;;5.82;84.55
6680;BME280;3376;42.664;23.346;2023-04-08T01:58:39;94615.13;;;5.91;83.72
6680;BME280;3376;42.664;23.346;2023-04-08T02:01:12;94637.34;;;6.10;83.04
6680;BME280;3376;42.664;23.346;2023-04-08T02:03:41;94632.41;;;6.16;82.34
6680;BME280;3376;42.664;23.346;2023-04-08T02:06:09;94633.75;;;6.20;82.43
6680;BME280;3376;42.664;23.346;2023-04-08T02:08:36;94631.69;;;6.24;81.68
6680;BME280;3376;42.664;23.346;2023-04-08T02:11:03;94647.19;;;6.32;82.05
6680;BME280;3376;42.664;23.346;2023-04-08T02:13:31;94617.50;;;6.20;81.76
6680;BME280;3376;42.664;23.346;2023-04-08T02:16:03;94647.63;;;6.45;81.47
6680;BME280;3376;42.664;23.346;2023-04-08T02:18:34;94647.03;;;6.51;81.65
6680;BME280;3376;42.664;23.346;2023-04-08T02:21:08;94642.19;;;6.48;80.90
6680;BME280;3376;42.664;23.346;2023-04-08T02:23:37;94650.56;;;6.50;81.76
6680;BME280;3376;42.664;23.346;2023-04-08T02:26:07;94639.91;;;6.45;80.54
6680;BME280;3376;42.664;23.346;2023-04-08T02:28:38;94652.50;;;6.48;80.81
6680;BME280;3376;42.664;23.346;2023-04-08T02:31:08;94647.97;;;6.50;81.03
6680;BME280;3376;42.664;23.346;2023-04-08T02:33:39;94646.00;;;6.44;81.51
6680;BME280;3376;42.664;23.346;2023-04-08T02:36:07;94642.09;;;6.40;81.94
6680;BME280;3376;42.664;23.346;2023-04-08T02:38:35;94644.25;;;6.44;82.29
6680;BME280;3376;42.664;23.346;2023-04-08T02:41:02;94636.91;;;6.32;82.23
6680;BME280;3376;42.664;23.346;2023-04-08T02:43:28;94647.63;;;6.45;81.99
6680;BME280;3376;42.664;23.346;2023-04-08T02:45:57;94643.50;;;6.52;81.98
6680;BME280;3376;42.664;23.346;2023-04-08T02:48:27;94644.06;;;6.63;81.00
6680;BME280;3376;42.664;23.346;2023-04-08T02:50:55;94653.78;;;6.52;81.65
6680;BME280;3376;42.664;23.346;2023-04-08T02:53:22;94639.63;;;6.48;81.28
6680;BME280;3376;42.664;23.346;2023-04-08T02:55:49;94645.91;;;6.53;81.62
6680;BME280;3376;42.664;23.346;2023-04-08T02:58:16;94635.94;;;6.50;80.42
6680;BME280;3376;42.664;23.346;2023-04-08T03:00:43;94627.69;;;6.47;80.79
6680;BME280;3376;42.664;23.346;2023-04-08T03:03:10;94652.41;;;6.57;81.39
6680;BME280;3376;42.664;23.346;2023-04-08T03:05:36;94650.84;;;6.47;83.21
6680;BME280;3376;42.664;23.346;2023-04-08T03:08:04;94648.06;;;6.58;82.63
6680;BME280;3376;42.664;23.346;2023-04-08T03:10:32;94565.47;;;6.08;82.24
6680;BME280;3376;42.664;23.346;2023-04-08T03:12:58;94646.94;;;6.60;82.43
6680;BME280;3376;42.664;23.346;2023-04-08T03:15:25;94587.88;;;6.16;82.52
6680;BME280;3376;42.664;23.346;2023-04-08T03:17:52;94648.34;;;6.55;82.87
6680;BME280;3376;42.664;23.346;2023-04-08T03:20:19;94644.16;;;6.54;83.82
6680;BME280;3376;42.664;23.346;2023-04-08T03:22:45;94640.72;;;6.63;83.18
6680;BME280;3376;42.664;23.346;2023-04-08T03:25:14;94632.69;;;6.48;82.44
6680;BME280;3376;42.664;23.346;2023-04-08T03:27:40;94651.22;;;6.52;82.50
6680;BME280;3376;42.664;23.346;2023-04-08T03:30:07;94650.13;;;6.54;80.04
6680;BME280;3376;42.664;23.346;2023-04-08T03:32:34;94654.31;;;6.55;80.23
6680;BME280;3376;42.664;23.346;2023-04-08T03:35:01;94654.31;;;6.55;79.53
6680;BME280;3376;42.664;23.346;2023-04-08T03:37:28;94654.16;;;6.57;82.09
6680;BME280;3376;42.664;23.346;2023-04-08T03:39:55;94652.25;;;6.41;79.76
6680;BME280;3376;42.664;23.346;2023-04-08T03:42:23;94651.09;;;6.36;80.83
6680;BME280;3376;42.664;23.346;2023-04-08T03:44:50;94643.72;;;6.23;81.99
6680;BME280;3376;42.664;23.346;2023-04-08T03:47:17;94657.97;;;6.18;80.96
6680;BME280;3376;42.664;23.346;2023-04-08T03:49:43;94652.84;;;6.18;81.24
6680;BME280;3376;42.664;23.346;2023-04-08T03:52:10;94649.53;;;6.08;80.87
6680;BME280;3376;42.664;23.346;2023-04-08T03:54:37;94650.72;;;6.13;82.59
6680;BME280;3376;42.664;23.346;2023-04-08T03:57:04;94627.88;;;6.10;81.97
6680;BME280;3376;42.664;23.346;2023-04-08T03:59:32;94651.31;;;6.25;82.69
6680;BME280;3376;42.664;23.346;2023-04-08T04:02:00;94651.72;;;6.38;83.22
6680;BME280;3376;42.664;23.346;2023-04-08T04:04:27;94646.88;;;6.35;83.95
6680;BME280;3376;42.664;23.346;2023-04-08T04:06:54;94641.38;;;6.30;83.49
6680;BME280;3376;42.664;23.346;2023-04-08T04:09:21;94641.06;;;6.33;85.07
6680;BME280;3376;42.664;23.346;2023-04-08T04:11:47;94645.94;;;6.36;84.58
6680;BME280;3376;42.664;23.346;2023-04-08T04:14:14;94648.22;;;6.39;84.60
6680;BME280;3376;42.664;23.346;2023-04-08T04:16:42;94651.63;;;6.39;84.63
6680;BME280;3376;42.664;23.346;2023-04-08T04:19:09;94645.66;;;6.39;83.86
6680;BME280;3376;42.664;23.346;2023-04-08T04:21:36;94658.22;;;6.42;84.20
6680;BME280;3376;42.664;23.346;2023-04-08T04:24:03;94654.97;;;6.40;84.82
6680;BME280;3376;42.664;23.346;2023-04-08T04:26:30;94645.44;;;6.32;85.12
6680;BME280;3376;42.664;23.346;2023-04-08T04:28:56;94658.44;;;6.31;83.31
6680;BME280;3376;42.664;23.346;2023-04-08T04:31:24;94640.03;;;6.26;83.66
6680;BME280;3376;42.664;23.346;2023-04-08T04:33:53;94671.78;;;6.34;85.49
6680;BME280;3376;42.664;23.346;2023-04-08T04:36:20;94661.38;;;6.36;86.77
6680;BME280;3376;42.664;23.346;2023-04-08T04:38:47;94663.97;;;6.36;85.65
6680;BME280;3376;42.664;23.346;2023-04-08T04:41:14;94663.28;;;6.34;86.97
6680;BME280;3376;42.664;23.346;2023-04-08T04:43:41;94666.91;;;6.41;87.23
6680;BME280;3376;42.664;23.346;2023-04-08T04:46:08;94658.50;;;6.39;86.37
6680;BME280;3376;42.664;23.346;2023-04-08T04:48:35;94650.78;;;6.39;86.90
6680;BME280;3376;42.664;23.346;2023-04-08T04:51:03;94658.78;;;6.53;85.99
6680;BME280;3376;42.664;23.346;2023-04-08T04:53:31;94660.28;;;6.56;84.76
6680;BME280;3376;42.664;23.346;2023-04-08T04:55:58;94663.31;;;6.51;84.61
6680;BME280;3376;42.664;23.346;2023-04-08T04:58:26;94639.84;;;6.37;84.65
6680;BME280;3376;42.664;23.346;2023-04-08T05:00:52;94665.28;;;6.57;85.33
6680;BME280;3376;42.664;23.346;2023-04-08T05:03:19;94659.69;;;6.44;86.45
6680;BME280;3376;42.664;23.346;2023-04-08T05:05:50;94671.97;;;6.50;85.50
6680;BME280;3376;42.664;23.346;2023-04-08T05:08:18;94671.38;;;6.56;84.53
6680;BME280;3376;42.664;23.346;2023-04-08T05:10:45;94660.34;;;6.64;85.20
6680;BME280;3376;42.664;23.346;2023-04-08T05:13:14;94671.00;;;6.69;82.89
6680;BME280;3376;42.664;23.346;2023-04-08T05:15:41;94654.25;;;6.65;82.39
6680;BME280;3376;42.664;23.346;2023-04-08T05:18:08;94661.97;;;6.65;83.15
6680;BME280;3376;42.664;23.346;2023-04-08T05:20:35;94661.72;;;6.76;86.28
6680;BME280;3376;42.664;23.346;2023-04-08T05:23:01;94671.09;;;6.77;86.31
6680;BME280;3376;42.664;23.346;2023-04-08T05:25:30;94657.66;;;6.91;85.22
6680;BME280;3376;42.664;23.346;2023-04-08T05:27:56;94670.59;;;6.99;88.25
6680;BME280;3376;42.664;23.346;2023-04-08T05:30:23;94663.94;;;7.14;84.47
6680;BME280;3376;42.664;23.346;2023-04-08T05:32:50;94650.41;;;7.12;85.32
6680;BME280;3376;42.664;23.346;2023-04-08T05:35:17;94669.34;;;7.29;86.38
6680;BME280;3376;42.664;23.346;2023-04-08T05:37:44;94677.31;;;7.43;84.52
6680;BME280;3376;42.664;23.346;2023-04-08T05:40:11;94663.38;;;7.54;81.60
6680;BME280;3376;42.664;23.346;2023-04-08T05:42:39;94675.06;;;7.74;80.24
6680;BME280;3376;42.664;23.346;2023-04-08T05:45:07;94669.81;;;7.91;79.85
6680;BME280;3376;42.664;23.346;2023-04-08T05:47:34;94675.00;;;7.99;77.42
6680;BME280;3376;42.664;23.346;2023-04-08T05:50:00;94664.66;;;7.91;77.50
6680;BME280;3376;42.664;23.346;2023-04-08T05:52:27;94653.69;;;7.89;75.86
6680;BME280;3376;42.664;23.346;2023-04-08T05:54:54;94667.56;;;7.88;74.71
6680;BME280;3376;42.664;23.346;2023-04-08T05:57:21;94662.34;;;7.80;75.10
6680;BME280;3376;42.664;23.346;2023-04-08T05:59:49;94643.97;;;7.83;74.21
6680;BME280;3376;42.664;23.346;2023-04-08T06:02:17;94674.06;;;8.08;73.52
6680;BME280;3376;42.664;23.346;2023-04-08T06:04:44;94660.06;;;8.19;73.55
6680;BME280;3376;42.664;23.346;2023-04-08T06:07:11;94667.69;;;8.28;73.22
6680;BME280;3376;42.664;23.346;2023-04-08T06:09:38;94666.91;;;8.36;73.28
6680;BME280;3376;42.664;23.346;2023-04-08T06:12:04;94665.94;;;8.29;73.05
6680;BME280;3376;42.664;23.346;2023-04-08T06:14:31;94671.75;;;8.39;71.93
6680;BME280;3376;42.664;23.346;2023-04-08T06:16:59;94659.63;;;8.31;71.85
6680;BME280;3376;42.664;23.346;2023-04-08T06:19:26;94648.13;;;8.18;74.03
6680;BME280;3376;42.664;23.346;2023-04-08T06:21:53;94669.47;;;8.28;72.42
6680;BME280;3376;42.664;23.346;2023-04-08T06:24:23;94653.34;;;8.34;72.90
6680;BME280;3376;42.664;23.346;2023-04-08T06:26:50;94671.59;;;8.49;72.89
6680;BME280;3376;42.664;23.346;2023-04-08T06:29:18;94668.72;;;8.60;72.37
6680;BME280;3376;42.664;23.346;2023-04-08T06:31:45;94670.03;;;8.80;71.63
6680;BME280;3376;42.664;23.346;2023-04-08T06:34:13;94661.78;;;8.92;71.70
6680;BME280;3376;42.664;23.346;2023-04-08T06:36:40;94662.44;;;8.94;70.72
6680;BME280;3376;42.664;23.346;2023-04-08T06:39:07;94665.00;;;9.02;70.69
6680;BME280;3376;42.664;23.346;2023-04-08T06:41:34;94670.66;;;9.22;71.21
6680;BME280;3376;42.664;23.346;2023-04-08T06:44:01;94687.59;;;9.24;71.35
6680;BME280;3376;42.664;23.346;2023-04-08T06:46:28;94674.53;;;9.26;72.07
6680;BME280;3376;42.664;23.346;2023-04-08T06:48:55;94677.94;;;9.18;72.76
6680;BME280;3376;42.664;23.346;2023-04-08T06:51:23;94660.97;;;9.08;72.05
6680;BME280;3376;42.664;23.346;2023-04-08T06:53:50;94670.97;;;9.19;72.23
6680;BME280;3376;42.664;23.346;2023-04-08T06:56:16;94674.22;;;9.21;71.80
6680;BME280;3376;42.664;23.346;2023-04-08T06:58:45;94680.66;;;9.25;72.88
6680;BME280;3376;42.664;23.346;2023-04-08T07:01:12;94657.44;;;9.17;72.92
6680;BME280;3376;42.664;23.346;2023-04-08T07:03:40;94647.09;;;9.09;72.76
6680;BME280;3376;42.664;23.346;2023-04-08T07:06:07;94669.34;;;9.26;72.22
6680;BME280;3376;42.664;23.346;2023-04-08T07:08:35;94665.81;;;9.27;72.80
6680;BME280;3376;42.664;23.346;2023-04-08T07:11:03;94674.16;;;9.45;71.84
6680;BME280;3376;42.664;23.346;2023-04-08T07:13:31;94676.91;;;9.60;71.63
6680;BME280;3376;42.664;23.346;2023-04-08T07:15:57;94674.88;;;9.78;70.72
6680;BME280;3376;42.664;23.346;2023-04-08T07:18:24;94679.72;;;9.89;70.44
6680;BME280;3376;42.664;23.346;2023-04-08T07:20:51;94678.88;;;9.96;69.88
6680;BME280;3376;42.664;23.346;2023-04-08T07:23:18;94678.56;;;9.91;70.09
6680;BME280;3376;42.664;23.346;2023-04-08T07:25:46;94687.22;;;10.06;70.35
6680;BME280;3376;42.664;23.346;2023-04-08T07:28:13;94690.97;;;10.12;70.04
6680;BME280;3376;42.664;23.346;2023-04-08T07:30:40;94693.66;;;10.26;70.47
6680;BME280;3376;42.664;23.346;2023-04-08T07:33:07;94694.56;;;10.41;69.26
6680;BME280;3376;42.664;23.346;2023-04-08T07:35:34;94697.38;;;10.54;68.63
6680;BME280;3376;42.664;23.346;2023-04-08T07:38:00;94696.03;;;10.36;70.33
6680;BME280;3376;42.664;23.346;2023-04-08T07:40:27;94689.38;;;10.41;69.53
6680;BME280;3376;42.664;23.346;2023-04-08T07:42:55;94694.13;;;10.60;68.96
6680;BME280;3376;42.664;23.346;2023-04-08T07:45:22;94699.13;;;10.62;69.05
6680;BME280;3376;42.664;23.346;2023-04-08T07:47:49;94698.25;;;10.69;69.05
6680;BME280;3376;42.664;23.346;2023-04-08T07:50:16;94678.88;;;10.65;68.72
6680;BME280;3376;42.664;23.346;2023-04-08T07:52:43;94682.16;;;10.82;69.88
6680;BME280;3376;42.664;23.346;2023-04-08T07:55:10;94702.53;;;11.08;68.55
6680;BME280;3376;42.664;23.346;2023-04-08T07:57:36;94712.88;;;11.30;66.25
6680;BME280;3376;42.664;23.346;2023-04-08T08:00:06;94702.66;;;11.51;66.33
6680;BME280;3376;42.664;23.346;2023-04-08T08:02:33;94715.25;;;11.54;65.93
6680;BME280;3376;42.664;23.346;2023-04-08T08:05:00;94717.69;;;11.56;65.93
6680;BME280;3376;42.664;23.346;2023-04-08T08:07:27;94699.19;;;11.22;66.98
6680;BME280;3376;42.664;23.346;2023-04-08T08:09:55;94713.81;;;11.52;66.39
6680;BME280;3376;42.664;23.346;2023-04-08T08:12:21;94722.47;;;11.67;65.26
6680;BME280;3376;42.664;23.346;2023-04-08T08:14:48;94718.28;;;11.95;65.17
6680;BME280;3376;42.664;23.346;2023-04-08T08:17:16;94715.44;;;12.05;65.11
6680;BME280;3376;42.664;23.346;2023-04-08T08:19:43;94720.44;;;12.35;63.61
6680;BME280;3376;42.664;23.346;2023-04-08T08:22:10;94701.88;;;12.38;63.24
6680;BME280;3376;42.664;23.346;2023-04-08T08:24:37;94696.56;;;12.46;60.95
6680;BME280;3376;42.664;23.346;2023-04-08T08:27:04;94612.47;;;11.97;60.66
6680;BME280;3376;42.664;23.346;2023-04-08T08:29:31;94700.88;;;12.39;60.33
6680;BME280;3376;42.664;23.346;2023-04-08T08:31:57;94705.97;;;12.47;62.29
6680;BME280;3376;42.664;23.346;2023-04-08T08:34:26;94710.84;;;12.21;63.46
6680;BME280;3376;42.664;23.346;2023-04-08T08:36:52;94721.41;;;12.05;62.54
6680;BME280;3376;42.664;23.346;2023-04-08T08:39:20;94722.59;;;12.03;61.90
6680;BME280;3376;42.664;23.346;2023-04-08T08:41:47;94707.25;;;11.93;62.50
6680;BME280;3376;42.664;23.346;2023-04-08T08:44:14;94729.38;;;12.04;62.58
6680;BME280;3376;42.664;23.346;2023-04-08T08:46:43;94724.00;;;12.20;62.99
6680;BME280;3376;42.664;23.346;2023-04-08T08:49:10;94724.91;;;11.98;64.67
6680;BME280;3376;42.664;23.346;2023-04-08T08:51:39;94715.69;;;11.95;63.82
6680;BME280;3376;42.664;23.346;2023-04-08T08:54:07;94716.50;;;11.96;63.08
6680;BME280;3376;42.664;23.346;2023-04-08T08:56:33;94729.94;;;11.99;63.14
6680;BME280;3376;42.664;23.346;2023-04-08T08:59:00;94723.41;;;12.03;69.82
6680;BME280;3376;42.664;23.346;2023-04-08T09:01:34;94727.25;;;12.07;71.83
6680;BME280;3376;42.664;23.346;2023-04-08T09:04:10;94728.91;;;12.29;72.69
6680;BME280;3376;42.664;23.346;2023-04-08T09:06:39;94725.44;;;12.37;68.44
6680;BME280;3376;42.664;23.346;2023-04-08T09:09:06;94733.56;;;12.48;67.82
6680;BME280;3376;42.664;23.346;2023-04-08T09:11:36;94737.31;;;12.60;67.09
6680;BME280;3376;42.664;23.346;2023-04-08T09:14:04;94712.31;;;12.59;66.90
6680;BME280;3376;42.664;23.346;2023-04-08T09:16:32;94732.28;;;12.73;68.00
6680;BME280;3376;42.664;23.346;2023-04-08T09:19:09;94626.91;;;12.00;62.67
6680;BME280;3376;42.664;23.346;2023-04-08T09:21:36;94721.63;;;12.54;62.55
6680;BME280;3376;42.664;23.346;2023-04-08T09:24:06;94730.47;;;12.74;61.48
6680;BME280;3376;42.664;23.346;2023-04-08T09:26:34;94732.22;;;12.88;60.51
6680;BME280;3376;42.664;23.346;2023-04-08T09:29:03;94723.59;;;12.87;59.01
6680;BME280;3376;42.664;23.346;2023-04-08T09:31:31;94723.19;;;13.20;62.85
6680;BME280;3376;42.664;23.346;2023-04-08T09:33:59;94700.72;;;13.61;63.07
6680;BME280;3376;42.664;23.346;2023-04-08T09:36:27;94701.72;;;13.94;56.48
6680;BME280;3376;42.664;23.346;2023-04-08T09:38:54;94708.56;;;14.29;54.96
6680;BME280;3376;42.664;23.346;2023-04-08T09:41:22;94718.53;;;14.66;53.47
6680;BME280;3376;42.664;23.346;2023-04-08T09:43:53;94707.00;;;15.01;52.87
6680;BME280;3376;42.664;23.346;2023-04-08T09:46:25;94690.59;;;15.33;51.89
6680;BME280;3376;42.664;23.346;2023-04-08T09:48:57;94691.41;;;15.60;50.23
6680;BME280;3376;42.664;23.346;2023-04-08T09:51:31;94696.38;;;16.14;49.83
6680;BME280;3376;42.664;23.346;2023-04-08T09:54:01;94689.22;;;16.40;48.19
6680;BME280;3376;42.664;23.346;2023-04-08T09:56:38;94691.22;;;16.58;47.10
6680;BME280;3376;42.664;23.346;2023-04-08T09:59:11;94690.59;;;16.63;46.87
6680;BME280;3376;42.664;23.346;2023-04-08T10:01:43;94692.34;;;16.75;45.66
6680;BME280;3376;42.664;23.346;2023-04-08T10:04:13;94668.66;;;17.01;44.53
6680;BME280;3376;42.664;23.346;2023-04-08T10:06:41;94679.84;;;17.15;44.19
6680;BME280;3376;42.664;23.346;2023-04-08T10:09:09;94691.31;;;16.83;45.11
6680;BME280;3376;42.664;23.346;2023-04-08T10:11:38;94689.84;;;16.56;46.64
6680;BME280;3376;42.664;23.346;2023-04-08T10:14:05;94680.97;;;16.57;46.00
6680;BME280;3376;42.664;23.346;2023-04-08T10:16:35;94692.66;;;16.41;46.82
6680;BME280;3376;42.664;23.346;2023-04-08T10:19:35;94675.44;;;16.20;46.53
6680;BME280;3376;42.664;23.346;2023-04-08T10:25:28;94671.31;;;15.74;48.17
6680;BME280;3376;42.664;23.346;2023-04-08T10:27:56;94682.97;;;15.32;48.21
6680;BME280;3376;42.664;23.346;2023-04-08T10:30:42;94672.84;;;14.90;48.94
6680;BME280;3376;42.664;23.346;2023-04-08T10:33:10;94682.03;;;14.73;49.84
6680;BME280;3376;42.664;23.346;2023-04-08T10:35:40;94673.78;;;14.56;50.31
6680;BME280;3376;42.664;23.346;2023-04-08T10:38:08;94675.53;;;14.43;51.76
6680;BME280;3376;42.664;23.346;2023-04-08T10:40:36;94675.09;;;14.33;52.58
6680;BME280;3376;42.664;23.346;2023-04-08T10:43:07;94647.63;;;13.96;56.01
6680;BME280;3376;42.664;23.346;2023-04-08T10:45:34;94661.69;;;14.01;56.32
6680;BME280;3376;42.664;23.346;2023-04-08T10:48:14;94653.53;;;14.17;55.16
6680;BME280;3376;42.664;23.346;2023-04-08T10:50:42;94659.41;;;14.26;56.92
6680;BME280;3376;42.664;23.346;2023-04-08T10:53:09;94653.91;;;14.55;54.97
6680;BME280;3376;42.664;23.346;2023-04-08T10:55:36;94624.31;;;14.82;53.89
6680;BME280;3376;42.664;23.346;2023-04-08T10:58:05;94646.41;;;15.52;51.71
6680;BME280;3376;42.664;23.346;2023-04-08T11:00:34;94647.41;;;15.83;51.51
6680;BME280;3376;42.664;23.346;2023-04-08T11:03:02;94649.38;;;16.01;49.97
6680;BME280;3376;42.664;23.346;2023-04-08T11:05:29;94659.66;;;15.83;49.51
6680;BME280;3376;42.664;23.346;2023-04-08T11:07:56;94623.13;;;15.44;48.58
6680;BME280;3376;42.664;23.346;2023-04-08T11:10:23;94647.00;;;15.21;48.97
6680;BME280;3376;42.664;23.346;2023-04-08T11:12:52;94634.94;;;14.94;49.86
6680;BME280;3376;42.664;23.346;2023-04-08T11:15:20;94628.28;;;14.78;50.58
6680;BME280;3376;42.664;23.346;2023-04-08T11:17:49;94635.97;;;14.93;50.17
6680;BME280;3376;42.664;23.346;2023-04-08T11:20:16;94634.34;;;14.92;48.64
6680;BME280;3376;42.664;23.346;2023-04-08T11:22:43;94631.72;;;14.98;47.96
6680;BME280;3376;42.664;23.346;2023-04-08T11:25:10;94619.91;;;15.02;47.47
6680;BME280;3376;42.664;23.346;2023-04-08T11:27:38;94627.13;;;15.00;47.35
6680;BME280;3376;42.664;23.346;2023-04-08T11:30:06;94620.91;;;15.08;48.28
6680;BME280;3376;42.664;23.346;2023-04-08T11:32:34;94615.69;;;15.14;47.75
6680;BME280;3376;42.664;23.346;2023-04-08T11:35:04;94611.47;;;15.26;47.92
6680;BME280;3376;42.664;23.346;2023-04-08T11:37:36;94617.50;;;15.53;46.50
6680;BME280;3376;42.664;23.346;2023-04-08T11:40:06;94581.94;;;15.32;46.60
6680;BME280;3376;42.664;23.346;2023-04-08T11:42:33;94614.84;;;15.73;45.54
6680;BME280;3376;42.664;23.346;2023-04-08T11:45:00;94614.47;;;15.50;45.63
6680;BME280;3376;42.664;23.346;2023-04-08T11:47:30;94614.69;;;15.61;45.04
6680;BME280;3376;42.664;23.346;2023-04-08T11:49:57;94601.03;;;15.26;45.46
6680;BME280;3376;42.664;23.346;2023-04-08T11:52:42;94596.59;;;15.20;45.08
6680;BME280;3376;42.664;23.346;2023-04-08T11:55:10;94579.16;;;15.01;44.56
6680;BME280;3376;42.664;23.346;2023-04-08T11:57:37;94601.00;;;14.74;46.75
6680;BME280;3376;42.664;23.346;2023-04-08T12:00:05;94599.81;;;14.83;47.21
6680;BME280;3376;42.664;23.346;2023-04-08T12:02:32;94592.38;;;15.26;45.84
6680;BME280;3376;42.664;23.346;2023-04-08T12:04:59;94595.75;;;15.72;46.12
6680;BME280;3376;42.664;23.346;2023-04-08T12:07:26;94603.75;;;15.97;45.16
6680;BME280;3376;42.664;23.346;2023-04-08T12:09:55;94591.56;;;16.22;44.53
6680;BME280;3376;42.664;23.346;2023-04-08T12:12:21;94574.19;;;16.47;50.88
6680;BME280;3376;42.664;23.346;2023-04-08T12:14:48;94569.91;;;16.53;44.34
6680;BME280;3376;42.664;23.346;2023-04-08T12:17:15;94564.13;;;16.51;47.23
6680;BME280;3376;42.664;23.346;2023-04-08T12:19:42;94576.28;;;16.63;45.79
6680;BME280;3376;42.664;23.346;2023-04-08T12:22:09;94578.84;;;16.76;45.15
6680;BME280;3376;42.664;23.346;2023-04-08T12:24:35;94577.97;;;16.82;44.36
6680;BME280;3376;42.664;23.346;2023-04-08T12:27:03;94573.56;;;16.83;44.56
6680;BME280;3376;42.664;23.346;2023-04-08T12:29:30;94564.72;;;16.46;44.34
6680;BME280;3376;42.664;23.346;2023-04-08T12:31:57;94563.03;;;16.20;44.87
6680;BME280;3376;42.664;23.346;2023-04-08T12:34:24;94560.81;;;15.67;47.17
6680;BME280;3376;42.664;23.346;2023-04-08T12:36:51;94566.50;;;15.44;49.64
6680;BME280;3376;42.664;23.346;2023-04-08T12:39:18;94567.31;;;14.99;49.65
6680;BME280;3376;42.664;23.346;2023-04-08T12:41:45;94569.13;;;14.72;50.19
6680;BME280;3376;42.664;23.346;2023-04-08T12:44:13;94565.66;;;14.39;48.22
6680;BME280;3376;42.664;23.346;2023-04-08T12:46:40;94564.72;;;14.06;48.94
6680;BME280;3376;42.664;23.346;2023-04-08T12:49:07;94562.97;;;13.32;51.40
6680;BME280;3376;42.664;23.346;2023-04-08T12:51:34;94565.63;;;13.38;51.90
6680;BME280;3376;42.664;23.346;2023-04-08T12:54:01;94564.31;;;13.21;53.59
6680;BME280;3376;42.664;23.346;2023-04-08T12:56:29;94549.84;;;12.91;54.28
6680;BME280;3376;42.664;23.346;2023-04-08T12:58:56;94563.03;;;12.68;55.49
6680;BME280;3376;42.664;23.346;2023-04-08T13:01:24;94528.16;;;12.56;59.63
6680;BME280;3376;42.664;23.346;2023-04-08T13:03:50;94522.22;;;12.62;57.95
6680;BME280;3376;42.664;23.346;2023-04-08T13:06:17;94559.38;;;12.84;56.33
6680;BME280;3376;42.664;23.346;2023-04-08T13:08:44;94556.78;;;12.84;56.29
